sensor_id;sensor_type;location;lat;lon;timestamp;P1;durP1;ratioP1;P2;durP2;ratioP2
17854;SDS011;9053;53.358;6.382;2023-08-21T00:01:48;4.28;;;2.95;;
17854;SDS011;9053;53.358;6.382;2023-08-21T00:04:18;1.90;;;1.60;;
17854;SDS011;9053;53.358;6.382;2023-08-21T00:06:48;3.60;;;2.35;;
17854;SDS011;9053;53.358;6.382;2023-08-21T00:09:20;3.30;;;2.13;;
17854;SDS011;9053;53.358;6.382;2023-08-21T00:11:50;3.13;;;2.38;;
17854;SDS011;9053;53.358;6.382;2023-08-21T00:14:20;2.40;;;2.20;;
17854;SDS011;9053;53.358;6.382;2023-08-21T00:16:50;3.75;;;2.33;;
17854;SDS011;9053;53.358;6.382;2023-08-21T00:19:22;3.13;;;2.50;;
17854;SDS011;9053;53.358;6.382;2023-08-21T00:21:52;2.75;;;2.17;;
17854;SDS011;9053;53.358;6.382;2023-08-21T00:24:24;4.78;;;2.70;;
17854;SDS011;9053;53.358;6.382;2023-08-21T00:26:54;3.10;;;2.30;;
17854;SDS011;9053;53.358;6.382;2023-08-21T00:29:24;3.15;;;2.10;;
17854;SDS011;9053;53.358;6.382;2023-08-21T00:31:54;2.85;;;2.33;;
17854;SDS011;9053;53.358;6.382;2023-08-21T00:34:24;2.40;;;2.20;;
17854;SDS011;9053;53.358;6.382;2023-08-21T00:36:54;3.42;;;2.13;;
17854;SDS011;9053;53.358;6.382;2023-08-21T00:39:26;3.25;;;2.20;;
17854;SDS011;9053;53.358;6.382;2023-08-21T00:41:56;5.53;;;2.17;;
17854;SDS011;9053;53.358;6.382;2023-08-21T00:44:27;3.92;;;2.85;;
17854;SDS011;9053;53.358;6.382;2023-08-21T00:46:56;3.38;;;2.25;;
17854;SDS011;9053;53.358;6.382;2023-08-21T00:49:26;2.55;;;2.35;;
17854;SDS011;9053;53.358;6.382;2023-08-21T00:51:56;4.13;;;2.60;;
17854;SDS011;9053;53.358;6.382;2023-08-21T00:54:29;4.10;;;2.25;;
17854;SDS011;9053;53.358;6.382;2023-08-21T00:57:00;2.95;;;2.30;;
17854;SDS011;9053;53.358;6.382;2023-08-21T00:59:30;2.88;;;2.17;;
17854;SDS011;9053;53.358;6.382;2023-08-21T01:02:00;2.50;;;2.05;;
17854;SDS011;9053;53.358;6.382;2023-08-21T01:04:30;2.65;;;2.45;;
17854;SDS011;9053;53.358;6.382;2023-08-21T01:07:00;3.45;;;2.30;;
17854;SDS011;9053;53.358;6.382;2023-08-21T01:09:39;3.20;;;2.50;;
17854;SDS011;9053;53.358;6.382;2023-08-21T01:12:17;3.15;;;2.20;;
17854;SDS011;9053;53.358;6.382;2023-08-21T01:14:54;3.38;;;1.92;;
17854;SDS011;9053;53.358;6.382;2023-08-21T01:17:30;2.28;;;2.08;;
17854;SDS011;9053;53.358;6.382;2023-08-21T01:20:03;2.45;;;2.00;;
17854;SDS011;9053;53.358;6.382;2023-08-21T01:22:38;2.63;;;2.13;;
17854;SDS011;9053;53.358;6.382;2023-08-21T01:25:15;3.78;;;2.17;;
17854;SDS011;9053;53.358;6.382;2023-08-21T01:27:46;2.70;;;1.95;;
17854;SDS011;9053;53.358;6.382;2023-08-21T01:30:23;2.08;;;1.70;;
17854;SDS011;9053;53.358;6.382;2023-08-21T01:32:56;2.50;;;2.00;;
17854;SDS011;9053;53.358;6.382;2023-08-21T01:35:32;2.97;;;2.20;;
17854;SDS011;9053;53.358;6.382;2023-08-21T01:38:05;3.03;;;2.40;;
17854;SDS011;9053;53.358;6.382;2023-08-21T01:40:38;3.22;;;2.40;;
17854;SDS011;9053;53.358;6.382;2023-08-21T01:43:09;3.13;;;2.78;;
17854;SDS011;9053;53.358;6.382;2023-08-21T01:45:40;2.72;;;2.25;;
17854;SDS011;9053;53.358;6.382;2023-08-21T01:48:10;3.00;;;2.45;;
17854;SDS011;9053;53.358;6.382;2023-08-21T01:50:40;2.83;;;2.10;;
17854;SDS011;9053;53.358;6.382;2023-08-21T01:53:10;2.60;;;2.22;;
17854;SDS011;9053;53.358;6.382;2023-08-21T01:55:42;2.40;;;2.17;;
17854;SDS011;9053;53.358;6.382;2023-08-21T01:58:12;3.60;;;2.30;;
17854;SDS011;9053;53.358;6.382;2023-08-21T02:00:45;2.60;;;2.40;;
17854;SDS011;9053;53.358;6.382;2023-08-21T02:03:15;2.88;;;2.67;;
17854;SDS011;9053;53.358;6.382;2023-08-21T02:05:45;3.40;;;2.75;;
17854;SDS011;9053;53.358;6.382;2023-08-21T02:08:15;2.50;;;2.30;;
17854;SDS011;9053;53.358;6.382;2023-08-21T02:10:49;2.63;;;2.22;;
17854;SDS011;9053;53.358;6.382;2023-08-21T02:13:20;2.50;;;2.22;;
17854;SDS011;9053;53.358;6.382;2023-08-21T02:15:50;2.58;;;2.20;;
17854;SDS011;9053;53.358;6.382;2023-08-21T02:18:20;2.35;;;2.13;;
17854;SDS011;9053;53.358;6.382;2023-08-21T02:20:50;2.40;;;2.20;;
17854;SDS011;9053;53.358;6.382;2023-08-21T02:23:20;2.33;;;2.13;;
17854;SDS011;9053;53.358;6.382;2023-08-21T02:25:53;2.40;;;2.00;;
17854;SDS011;9053;53.358;6.382;2023-08-21T02:28:23;2.92;;;2.22;;
17854;SDS011;9053;53.358;6.382;2023-08-21T02:30:53;2.22;;;2.03;;
17854;SDS011;9053;53.358;6.382;2023-08-21T02:33:23;2.65;;;2.10;;
17854;SDS011;9053;53.358;6.382;2023-08-21T02:35:54;1.77;;;1.67;;
17854;SDS011;9053;53.358;6.382;2023-08-21T02:38:23;2.42;;;2.00;;
17854;SDS011;9053;53.358;6.382;2023-08-21T02:40:56;2.00;;;1.80;;
17854;SDS011;9053;53.358;6.382;2023-08-21T02:43:26;2.28;;;1.70;;
17854;SDS011;9053;53.358;6.382;2023-08-21T02:45:57;2.00;;;1.50;;
17854;SDS011;9053;53.358;6.382;2023-08-21T02:48:26;1.92;;;1.80;;
17854;SDS011;9053;53.358;6.382;2023-08-21T02:50:56;2.17;;;1.45;;
17854;SDS011;9053;53.358;6.382;2023-08-21T02:53:30;1.20;;;1.10;;
17854;SDS011;9053;53.358;6.382;2023-08-21T02:56:03;1.52;;;1.38;;
17854;SDS011;9053;53.358;6.382;2023-08-21T02:58:33;1.40;;;1.30;;
17854;SDS011;9053;53.358;6.382;2023-08-21T03:01:03;1.65;;;1.55;;
17854;SDS011;9053;53.358;6.382;2023-08-21T03:03:33;1.58;;;1.48;;
17854;SDS011;9053;53.358;6.382;2023-08-21T03:06:04;2.00;;;1.90;;
17854;SDS011;9053;53.358;6.382;2023-08-21T03:08:34;2.00;;;1.80;;
17854;SDS011;9053;53.358;6.382;2023-08-21T03:11:07;2.13;;;1.92;;
17854;SDS011;9053;53.358;6.382;2023-08-21T03:13:37;1.95;;;1.75;;
17854;SDS011;9053;53.358;6.382;2023-08-21T03:16:07;2.50;;;2.28;;
17854;SDS011;9053;53.358;6.382;2023-08-21T03:21:25;3.63;;;2.45;;
17854;SDS011;9053;53.358;6.382;2023-08-21T03:23:56;3.53;;;2.17;;
17854;SDS011;9053;53.358;6.382;2023-08-21T03:26:33;2.40;;;2.20;;
17854;SDS011;9053;53.358;6.382;2023-08-21T03:29:03;3.85;;;2.60;;
17854;SDS011;9053;53.358;6.382;2023-08-21T03:31:34;3.28;;;2.20;;
17854;SDS011;9053;53.358;6.382;2023-08-21T03:34:04;2.63;;;2.08;;
17854;SDS011;9053;53.358;6.382;2023-08-21T03:36:35;2.28;;;1.92;;
17854;SDS011;9053;53.358;6.382;2023-08-21T03:39:05;1.67;;;1.58;;
17854;SDS011;9053;53.358;6.382;2023-08-21T03:41:37;2.25;;;1.83;;
17854;SDS011;9053;53.358;6.382;2023-08-21T03:44:07;1.92;;;1.60;;
17854;SDS011;9053;53.358;6.382;2023-08-21T03:46:37;2.70;;;1.67;;
17854;SDS011;9053;53.358;6.382;2023-08-21T03:49:07;1.50;;;1.40;;
17854;SDS011;9053;53.358;6.382;2023-08-21T03:51:37;1.52;;;1.42;;
17854;SDS011;9053;53.358;6.382;2023-08-21T03:54:07;1.60;;;1.50;;
17854;SDS011;9053;53.358;6.382;2023-08-21T03:56:40;1.98;;;1.52;;
17854;SDS011;9053;53.358;6.382;2023-08-21T03:59:09;1.48;;;1.38;;
17854;SDS011;9053;53.358;6.382;2023-08-21T04:01:39;1.65;;;1.40;;
17854;SDS011;9053;53.358;6.382;2023-08-21T04:04:09;4.07;;;1.50;;
17854;SDS011;9053;53.358;6.382;2023-08-21T04:06:39;1.70;;;1.52;;
17854;SDS011;9053;53.358;6.382;2023-08-21T04:09:09;1.50;;;1.40;;
17854;SDS011;9053;53.358;6.382;2023-08-21T04:11:42;1.30;;;1.20;;
17854;SDS011;9053;53.358;6.382;2023-08-21T04:14:12;1.40;;;1.30;;
17854;SDS011;9053;53.358;6.382;2023-08-21T04:16:41;1.40;;;1.30;;
17854;SDS011;9053;53.358;6.382;2023-08-21T04:19:11;1.40;;;1.25;;
17854;SDS011;9053;53.358;6.382;2023-08-21T04:21:41;1.20;;;1.10;;
17854;SDS011;9053;53.358;6.382;2023-08-21T04:24:11;1.27;;;1.10;;
17854;SDS011;9053;53.358;6.382;2023-08-21T04:26:44;1.30;;;1.20;;
17854;SDS011;9053;53.358;6.382;2023-08-21T04:29:14;2.00;;;1.40;;
17854;SDS011;9053;53.358;6.382;2023-08-21T04:31:45;1.50;;;1.40;;
17854;SDS011;9053;53.358;6.382;2023-08-21T04:34:15;3.15;;;1.67;;
17854;SDS011;9053;53.358;6.382;2023-08-21T04:36:45;1.67;;;1.40;;
17854;SDS011;9053;53.358;6.382;2023-08-21T04:39:15;1.55;;;1.45;;
17854;SDS011;9053;53.358;6.382;2023-08-21T04:41:48;2.15;;;1.50;;
17854;SDS011;9053;53.358;6.382;2023-08-21T04:44:18;1.70;;;1.60;;
17854;SDS011;9053;53.358;6.382;2023-08-21T04:46:48;1.70;;;1.60;;
17854;SDS011;9053;53.358;6.382;2023-08-21T04:49:19;1.48;;;1.38;;
17854;SDS011;9053;53.358;6.382;2023-08-21T04:51:48;1.83;;;1.73;;
17854;SDS011;9053;53.358;6.382;2023-08-21T04:54:18;1.90;;;1.70;;
17854;SDS011;9053;53.358;6.382;2023-08-21T04:56:51;1.83;;;1.60;;
17854;SDS011;9053;53.358;6.382;2023-08-21T04:59:21;2.08;;;1.60;;
17854;SDS011;9053;53.358;6.382;2023-08-21T05:01:51;1.83;;;1.73;;
17854;SDS011;9053;53.358;6.382;2023-08-21T05:04:21;1.70;;;1.60;;
17854;SDS011;9053;53.358;6.382;2023-08-21T05:06:51;2.33;;;1.80;;
17854;SDS011;9053;53.358;6.382;2023-08-21T05:09:21;2.13;;;1.92;;
17854;SDS011;9053;53.358;6.382;2023-08-21T05:11:54;2.65;;;2.00;;
17854;SDS011;9053;53.358;6.382;2023-08-21T05:14:24;2.65;;;2.30;;
17854;SDS011;9053;53.358;6.382;2023-08-21T05:16:54;2.30;;;2.10;;
17854;SDS011;9053;53.358;6.382;2023-08-21T05:19:25;2.08;;;1.88;;
17854;SDS011;9053;53.358;6.382;2023-08-21T05:21:54;2.60;;;2.40;;
17854;SDS011;9053;53.358;6.382;2023-08-21T05:24:24;2.97;;;2.50;;
17854;SDS011;9053;53.358;6.382;2023-08-21T05:26:58;3.55;;;2.70;;
17854;SDS011;9053;53.358;6.382;2023-08-21T05:29:28;3.08;;;2.42;;
17854;SDS011;9053;53.358;6.382;2023-08-21T05:31:59;2.55;;;2.13;;
17854;SDS011;9053;53.358;6.382;2023-08-21T05:34:30;2.40;;;2.20;;
17854;SDS011;9053;53.358;6.382;2023-08-21T05:37:00;3.03;;;2.20;;
17854;SDS011;9053;53.358;6.382;2023-08-21T05:39:30;2.65;;;2.45;;
17854;SDS011;9053;53.358;6.382;2023-08-21T05:42:03;3.28;;;2.53;;
17854;SDS011;9053;53.358;6.382;2023-08-21T05:44:33;2.90;;;1.95;;
17854;SDS011;9053;53.358;6.382;2023-08-21T05:47:03;2.53;;;1.90;;
17854;SDS011;9053;53.358;6.382;2023-08-21T05:49:33;2.65;;;2.13;;
17854;SDS011;9053;53.358;6.382;2023-08-21T05:52:03;2.65;;;2.05;;
17854;SDS011;9053;53.358;6.382;2023-08-21T05:54:34;2.53;;;2.20;;
17854;SDS011;9053;53.358;6.382;2023-08-21T05:57:06;2.20;;;2.00;;
17854;SDS011;9053;53.358;6.382;2023-08-21T05:59:42;2.30;;;1.98;;
17854;SDS011;9053;53.358;6.382;2023-08-21T06:02:13;3.42;;;2.20;;
17854;SDS011;9053;53.358;6.382;2023-08-21T06:04:43;2.22;;;1.75;;
17854;SDS011;9053;53.358;6.382;2023-08-21T06:07:13;2.00;;;1.80;;
17854;SDS011;9053;53.358;6.382;2023-08-21T06:09:43;2.78;;;1.58;;
17854;SDS011;9053;53.358;6.382;2023-08-21T06:12:15;3.25;;;1.90;;
17854;SDS011;9053;53.358;6.382;2023-08-21T06:14:45;2.63;;;1.80;;
17854;SDS011;9053;53.358;6.382;2023-08-21T06:17:15;1.92;;;1.45;;
17854;SDS011;9053;53.358;6.382;2023-08-21T06:19:45;2.50;;;1.65;;
17854;SDS011;9053;53.358;6.382;2023-08-21T06:22:15;2.33;;;1.60;;
17854;SDS011;9053;53.358;6.382;2023-08-21T06:24:45;2.33;;;1.50;;
17854;SDS011;9053;53.358;6.382;2023-08-21T06:27:17;1.77;;;1.40;;
17854;SDS011;9053;53.358;6.382;2023-08-21T06:29:48;2.20;;;1.50;;
17854;SDS011;9053;53.358;6.382;2023-08-21T06:32:18;2.17;;;1.45;;
17854;SDS011;9053;53.358;6.382;2023-08-21T06:34:48;1.70;;;1.40;;
17854;SDS011;9053;53.358;6.382;2023-08-21T06:37:17;2.97;;;1.65;;
17854;SDS011;9053;53.358;6.382;2023-08-21T06:39:47;1.45;;;1.25;;
17854;SDS011;9053;53.358;6.382;2023-08-21T06:42:21;3.72;;;1.85;;
17854;SDS011;9053;53.358;6.382;2023-08-21T06:44:51;2.10;;;1.40;;
17854;SDS011;9053;53.358;6.382;2023-08-21T06:47:21;1.95;;;1.42;;
17854;SDS011;9053;53.358;6.382;2023-08-21T06:49:51;1.98;;;1.60;;
17854;SDS011;9053;53.358;6.382;2023-08-21T06:52:21;2.17;;;1.55;;
17854;SDS011;9053;53.358;6.382;2023-08-21T06:54:51;1.95;;;1.30;;
17854;SDS011;9053;53.358;6.382;2023-08-21T06:57:23;2.58;;;1.70;;
17854;SDS011;9053;53.358;6.382;2023-08-21T06:59:53;1.65;;;1.20;;
17854;SDS011;9053;53.358;6.382;2023-08-21T07:02:23;1.45;;;1.10;;
17854;SDS011;9053;53.358;6.382;2023-08-21T07:04:53;2.97;;;1.50;;
17854;SDS011;9053;53.358;6.382;2023-08-21T07:07:24;2.25;;;1.40;;
17854;SDS011;9053;53.358;6.382;2023-08-21T07:09:54;2.55;;;1.30;;
17854;SDS011;9053;53.358;6.382;2023-08-21T07:12:26;2.05;;;1.30;;
17854;SDS011;9053;53.358;6.382;2023-08-21T07:14:57;1.77;;;1.35;;
17854;SDS011;9053;53.358;6.382;2023-08-21T07:17:27;2.13;;;1.33;;
17854;SDS011;9053;53.358;6.382;2023-08-21T07:19:57;3.40;;;1.58;;
17854;SDS011;9053;53.358;6.382;2023-08-21T07:22:27;2.60;;;1.67;;
17854;SDS011;9053;53.358;6.382;2023-08-21T07:24:57;2.70;;;1.42;;
17854;SDS011;9053;53.358;6.382;2023-08-21T07:27:29;2.45;;;1.50;;
17854;SDS011;9053;53.358;6.382;2023-08-21T07:30:01;2.90;;;1.30;;
17854;SDS011;9053;53.358;6.382;2023-08-21T07:32:31;3.42;;;1.60;;
17854;SDS011;9053;53.358;6.382;2023-08-21T07:35:02;1.90;;;1.33;;
17854;SDS011;9053;53.358;6.382;2023-08-21T07:37:33;2.97;;;1.60;;
17854;SDS011;9053;53.358;6.382;2023-08-21T07:40:04;2.20;;;1.20;;
17854;SDS011;9053;53.358;6.382;2023-08-21T07:42:37;2.00;;;1.30;;
17854;SDS011;9053;53.358;6.382;2023-08-21T07:45:08;2.45;;;1.17;;
17854;SDS011;9053;53.358;6.382;2023-08-21T07:47:38;1.83;;;1.20;;
17854;SDS011;9053;53.358;6.382;2023-08-21T07:50:08;2.55;;;1.17;;
17854;SDS011;9053;53.358;6.382;2023-08-21T07:52:40;2.40;;;1.10;;
17854;SDS011;9053;53.358;6.382;2023-08-21T07:55:10;2.75;;;1.02;;
17854;SDS011;9053;53.358;6.382;2023-08-21T07:57:43;1.90;;;0.80;;
17854;SDS011;9053;53.358;6.382;2023-08-21T08:00:13;1.77;;;1.00;;
17854;SDS011;9053;53.358;6.382;2023-08-21T08:02:43;2.88;;;1.02;;
17854;SDS011;9053;53.358;6.382;2023-08-21T08:05:13;2.45;;;1.00;;
17854;SDS011;9053;53.358;6.382;2023-08-21T08:07:43;2.50;;;1.00;;
17854;SDS011;9053;53.358;6.382;2023-08-21T08:10:13;3.08;;;1.10;;
17854;SDS011;9053;53.358;6.382;2023-08-21T08:12:46;1.42;;;1.08;;
17854;SDS011;9053;53.358;6.382;2023-08-21T08:15:17;1.85;;;1.17;;
17854;SDS011;9053;53.358;6.382;2023-08-21T08:17:47;2.15;;;1.00;;
17854;SDS011;9053;53.358;6.382;2023-08-21T08:20:20;1.92;;;1.00;;
17854;SDS011;9053;53.358;6.382;2023-08-21T08:22:50;1.40;;;1.08;;
17854;SDS011;9053;53.358;6.382;2023-08-21T08:25:20;2.15;;;1.25;;
17854;SDS011;9053;53.358;6.382;2023-08-21T08:27:53;3.30;;;1.20;;
17854;SDS011;9053;53.358;6.382;2023-08-21T08:30:22;2.05;;;1.00;;
17854;SDS011;9053;53.358;6.382;2023-08-21T08:32:53;1.63;;;1.00;;
17854;SDS011;9053;53.358;6.382;2023-08-21T08:35:24;1.67;;;1.20;;
17854;SDS011;9053;53.358;6.382;2023-08-21T08:37:53;2.03;;;1.00;;
17854;SDS011;9053;53.358;6.382;2023-08-21T08:40:23;1.90;;;1.00;;
17854;SDS011;9053;53.358;6.382;2023-08-21T08:42:56;1.83;;;1.10;;
17854;SDS011;9053;53.358;6.382;2023-08-21T08:45:27;2.17;;;1.17;;
17854;SDS011;9053;53.358;6.382;2023-08-21T08:48:00;1.90;;;1.08;;
17854;SDS011;9053;53.358;6.382;2023-08-21T08:50:30;1.92;;;1.08;;
17854;SDS011;9053;53.358;6.382;2023-08-21T08:53:01;1.48;;;0.85;;
17854;SDS011;9053;53.358;6.382;2023-08-21T08:55:42;2.13;;;1.17;;
17854;SDS011;9053;53.358;6.382;2023-08-21T08:58:15;3.88;;;1.50;;
17854;SDS011;9053;53.358;6.382;2023-08-21T09:00:45;1.33;;;1.00;;
17854;SDS011;9053;53.358;6.382;2023-08-21T09:03:16;0.93;;;0.90;;
17854;SDS011;9053;53.358;6.382;2023-08-21T09:05:46;2.13;;;1.23;;
17854;SDS011;9053;53.358;6.382;2023-08-21T09:08:17;3.13;;;1.30;;
17854;SDS011;9053;53.358;6.382;2023-08-21T09:10:47;1.60;;;1.20;;
17854;SDS011;9053;53.358;6.382;2023-08-21T09:13:21;3.47;;;1.25;;
17854;SDS011;9053;53.358;6.382;2023-08-21T09:15:53;3.33;;;1.48;;
17854;SDS011;9053;53.358;6.382;2023-08-21T09:18:24;1.88;;;1.13;;
17854;SDS011;9053;53.358;6.382;2023-08-21T09:20:55;1.40;;;1.08;;
17854;SDS011;9053;53.358;6.382;2023-08-21T09:23:25;2.95;;;1.40;;
17854;SDS011;9053;53.358;6.382;2023-08-21T09:25:59;1.80;;;1.10;;
17854;SDS011;9053;53.358;6.382;2023-08-21T09:28:34;3.08;;;1.10;;
17854;SDS011;9053;53.358;6.382;2023-08-21T09:31:05;1.48;;;0.95;;
17854;SDS011;9053;53.358;6.382;2023-08-21T09:33:36;1.83;;;1.10;;
17854;SDS011;9053;53.358;6.382;2023-08-21T09:36:06;2.28;;;1.20;;
17854;SDS011;9053;53.358;6.382;2023-08-21T09:38:38;2.20;;;1.42;;
17854;SDS011;9053;53.358;6.382;2023-08-21T09:41:09;2.53;;;1.45;;
17854;SDS011;9053;53.358;6.382;2023-08-21T09:43:43;2.10;;;1.20;;
17854;SDS011;9053;53.358;6.382;2023-08-21T09:46:14;1.77;;;1.38;;
17854;SDS011;9053;53.358;6.382;2023-08-21T09:48:45;3.63;;;1.30;;
17854;SDS011;9053;53.358;6.382;2023-08-21T09:51:16;2.40;;;1.33;;
17854;SDS011;9053;53.358;6.382;2023-08-21T09:53:46;3.20;;;1.20;;
17854;SDS011;9053;53.358;6.382;2023-08-21T09:56:17;2.05;;;1.30;;
17854;SDS011;9053;53.358;6.382;2023-08-21T09:58:50;2.83;;;1.30;;
17854;SDS011;9053;53.358;6.382;2023-08-21T10:01:21;1.95;;;1.13;;
17854;SDS011;9053;53.358;6.382;2023-08-21T10:03:51;2.30;;;1.40;;
17854;SDS011;9053;53.358;6.382;2023-08-21T10:06:23;1.70;;;1.23;;
17854;SDS011;9053;53.358;6.382;2023-08-21T10:08:54;2.25;;;1.20;;
17854;SDS011;9053;53.358;6.382;2023-08-21T10:11:25;1.92;;;1.50;;
17854;SDS011;9053;53.358;6.382;2023-08-21T10:13:59;2.50;;;1.40;;
17854;SDS011;9053;53.358;6.382;2023-08-21T10:16:29;1.33;;;1.13;;
17854;SDS011;9053;53.358;6.382;2023-08-21T10:19:02;2.85;;;1.48;;
17854;SDS011;9053;53.358;6.382;2023-08-21T10:21:36;2.65;;;1.30;;
17854;SDS011;9053;53.358;6.382;2023-08-21T10:24:06;2.33;;;1.30;;
17854;SDS011;9053;53.358;6.382;2023-08-21T10:26:37;1.95;;;1.15;;
17854;SDS011;9053;53.358;6.382;2023-08-21T10:29:15;2.53;;;1.30;;
17854;SDS011;9053;53.358;6.382;2023-08-21T10:31:45;1.90;;;1.20;;
17854;SDS011;9053;53.358;6.382;2023-08-21T10:34:15;1.65;;;1.02;;
17854;SDS011;9053;53.358;6.382;2023-08-21T10:37:02;2.75;;;1.63;;
17854;SDS011;9053;53.358;6.382;2023-08-21T10:39:37;1.65;;;1.00;;
17854;SDS011;9053;53.358;6.382;2023-08-21T10:42:09;2.75;;;1.20;;
17854;SDS011;9053;53.358;6.382;2023-08-21T10:44:49;2.17;;;1.25;;
17854;SDS011;9053;53.358;6.382;2023-08-21T10:47:30;2.75;;;1.40;;
17854;SDS011;9053;53.358;6.382;2023-08-21T10:50:03;2.65;;;1.00;;
17854;SDS011;9053;53.358;6.382;2023-08-21T10:52:35;2.40;;;1.40;;
17854;SDS011;9053;53.358;6.382;2023-08-21T10:55:07;3.35;;;1.63;;
17854;SDS011;9053;53.358;6.382;2023-08-21T10:57:39;1.83;;;1.13;;
17854;SDS011;9053;53.358;6.382;2023-08-21T11:00:13;3.22;;;1.33;;
17854;SDS011;9053;53.358;6.382;2023-08-21T11:02:45;3.70;;;1.42;;
17854;SDS011;9053;53.358;6.382;2023-08-21T11:05:16;1.80;;;1.38;;
17854;SDS011;9053;53.358;6.382;2023-08-21T11:07:47;3.03;;;1.42;;
17854;SDS011;9053;53.358;6.382;2023-08-21T11:10:18;2.67;;;1.40;;
17854;SDS011;9053;53.358;6.382;2023-08-21T11:12:52;2.55;;;1.40;;
17854;SDS011;9053;53.358;6.382;2023-08-21T11:15:26;2.47;;;1.15;;
17854;SDS011;9053;53.358;6.382;2023-08-21T11:17:57;3.10;;;1.50;;
17854;SDS011;9053;53.358;6.382;2023-08-21T11:20:29;3.65;;;1.60;;
17854;SDS011;9053;53.358;6.382;2023-08-21T11:23:01;2.33;;;1.40;;
17854;SDS011;9053;53.358;6.382;2023-08-21T11:25:33;2.10;;;1.00;;
17854;SDS011;9053;53.358;6.382;2023-08-21T11:28:04;3.28;;;1.40;;
17854;SDS011;9053;53.358;6.382;2023-08-21T11:30:37;2.35;;;1.25;;
17854;SDS011;9053;53.358;6.382;2023-08-21T11:33:10;3.63;;;1.50;;
17854;SDS011;9053;53.358;6.382;2023-08-21T11:35:42;3.83;;;1.50;;
17854;SDS011;9053;53.358;6.382;2023-08-21T11:38:16;3.17;;;1.35;;
17854;SDS011;9053;53.358;6.382;2023-08-21T11:40:54;3.00;;;1.55;;
17854;SDS011;9053;53.358;6.382;2023-08-21T11:43:33;1.83;;;1.20;;
17854;SDS011;9053;53.358;6.382;2023-08-21T11:46:07;2.13;;;1.13;;
17854;SDS011;9053;53.358;6.382;2023-08-21T11:48:41;6.68;;;1.50;;
17854;SDS011;9053;53.358;6.382;2023-08-21T11:51:11;4.68;;;1.20;;
17854;SDS011;9053;53.358;6.382;2023-08-21T11:53:41;1.50;;;0.80;;
17854;SDS011;9053;53.358;6.382;2023-08-21T11:56:12;3.55;;;1.20;;
17854;SDS011;9053;53.358;6.382;2023-08-21T11:58:44;1.95;;;1.25;;
17854;SDS011;9053;53.358;6.382;2023-08-21T12:01:19;3.30;;;1.30;;
17854;SDS011;9053;53.358;6.382;2023-08-21T12:03:49;3.00;;;1.45;;
17854;SDS011;9053;53.358;6.382;2023-08-21T12:06:22;2.80;;;1.40;;
17854;SDS011;9053;53.358;6.382;2023-08-21T12:08:53;4.07;;;1.80;;
17854;SDS011;9053;53.358;6.382;2023-08-21T12:11:23;3.40;;;1.50;;
17854;SDS011;9053;53.358;6.382;2023-08-21T12:13:54;3.22;;;1.23;;
17854;SDS011;9053;53.358;6.382;2023-08-21T12:16:26;2.67;;;1.58;;
17854;SDS011;9053;53.358;6.382;2023-08-21T12:18:56;3.58;;;1.60;;
17854;SDS011;9053;53.358;6.382;2023-08-21T12:21:26;2.03;;;1.30;;
17854;SDS011;9053;53.358;6.382;2023-08-21T12:23:56;3.88;;;2.03;;
17854;SDS011;9053;53.358;6.382;2023-08-21T12:26:26;2.47;;;1.20;;
17854;SDS011;9053;53.358;6.382;2023-08-21T12:29:10;4.55;;;1.63;;
17854;SDS011;9053;53.358;6.382;2023-08-21T12:31:42;5.05;;;1.88;;
17854;SDS011;9053;53.358;6.382;2023-08-21T12:34:13;3.22;;;1.77;;
17854;SDS011;9053;53.358;6.382;2023-08-21T12:36:43;3.17;;;1.40;;
17854;SDS011;9053;53.358;6.382;2023-08-21T12:39:13;2.42;;;1.30;;
17854;SDS011;9053;53.358;6.382;2023-08-21T12:41:43;3.22;;;1.38;;
17854;SDS011;9053;53.358;6.382;2023-08-21T12:44:13;4.43;;;1.63;;
17854;SDS011;9053;53.358;6.382;2023-08-21T12:46:45;2.72;;;1.50;;
17854;SDS011;9053;53.358;6.382;2023-08-21T12:49:15;3.13;;;1.23;;
17854;SDS011;9053;53.358;6.382;2023-08-21T12:51:45;3.08;;;1.40;;
17854;SDS011;9053;53.358;6.382;2023-08-21T12:54:15;2.42;;;1.30;;
17854;SDS011;9053;53.358;6.382;2023-08-21T12:56:45;3.63;;;1.30;;
17854;SDS011;9053;53.358;6.382;2023-08-21T12:59:15;2.92;;;1.40;;
17854;SDS011;9053;53.358;6.382;2023-08-21T13:01:48;2.85;;;1.48;;
17854;SDS011;9053;53.358;6.382;2023-08-21T13:04:18;6.05;;;2.20;;
17854;SDS011;9053;53.358;6.382;2023-08-21T13:06:48;2.95;;;1.27;;
17854;SDS011;9053;53.358;6.382;2023-08-21T13:09:18;4.25;;;1.45;;
17854;SDS011;9053;53.358;6.382;2023-08-21T13:11:48;4.10;;;1.23;;
17854;SDS011;9053;53.358;6.382;2023-08-21T13:14:18;3.15;;;1.27;;
17854;SDS011;9053;53.358;6.382;2023-08-21T13:16:51;3.08;;;1.25;;
17854;SDS011;9053;53.358;6.382;2023-08-21T13:19:22;2.17;;;1.10;;
17854;SDS011;9053;53.358;6.382;2023-08-21T13:21:52;2.80;;;1.10;;
17854;SDS011;9053;53.358;6.382;2023-08-21T13:24:22;2.65;;;1.25;;
17854;SDS011;9053;53.358;6.382;2023-08-21T13:26:54;1.75;;;1.13;;
17854;SDS011;9053;53.358;6.382;2023-08-21T13:29:25;2.58;;;1.40;;
17854;SDS011;9053;53.358;6.382;2023-08-21T13:31:59;7.68;;;1.83;;
17854;SDS011;9053;53.358;6.382;2023-08-21T13:34:29;6.57;;;2.95;;
17854;SDS011;9053;53.358;6.382;2023-08-21T13:36:59;7.22;;;3.20;;
17854;SDS011;9053;53.358;6.382;2023-08-21T13:39:29;3.78;;;1.92;;
17854;SDS011;9053;53.358;6.382;2023-08-21T13:42:02;3.90;;;1.90;;
17854;SDS011;9053;53.358;6.382;2023-08-21T13:44:32;2.55;;;1.60;;
17854;SDS011;9053;53.358;6.382;2023-08-21T13:47:05;2.58;;;1.20;;
17854;SDS011;9053;53.358;6.382;2023-08-21T13:49:35;2.55;;;1.00;;
17854;SDS011;9053;53.358;6.382;2023-08-21T13:52:05;3.47;;;1.13;;
17854;SDS011;9053;53.358;6.382;2023-08-21T13:54:35;2.13;;;1.10;;
17854;SDS011;9053;53.358;6.382;2023-08-21T13:57:05;2.80;;;1.17;;
17854;SDS011;9053;53.358;6.382;2023-08-21T13:59:35;2.90;;;1.13;;
17854;SDS011;9053;53.358;6.382;2023-08-21T14:02:07;2.80;;;1.05;;
17854;SDS011;9053;53.358;6.382;2023-08-21T14:04:37;3.13;;;1.33;;
17854;SDS011;9053;53.358;6.382;2023-08-21T14:07:07;2.65;;;1.05;;
17854;SDS011;9053;53.358;6.382;2023-08-21T14:09:37;2.25;;;1.05;;
17854;SDS011;9053;53.358;6.382;2023-08-21T14:12:07;1.75;;;0.95;;
17854;SDS011;9053;53.358;6.382;2023-08-21T14:14:38;2.13;;;1.20;;
17854;SDS011;9053;53.358;6.382;2023-08-21T14:17:10;1.88;;;0.95;;
17854;SDS011;9053;53.358;6.382;2023-08-21T14:19:40;2.25;;;1.10;;
17854;SDS011;9053;53.358;6.382;2023-08-21T14:22:10;1.95;;;1.02;;
17854;SDS011;9053;53.358;6.382;2023-08-21T14:24:40;4.32;;;0.98;;
17854;SDS011;9053;53.358;6.382;2023-08-21T14:27:09;4.07;;;1.15;;
17854;SDS011;9053;53.358;6.382;2023-08-21T14:29:39;2.55;;;1.00;;
17854;SDS011;9053;53.358;6.382;2023-08-21T14:32:16;2.33;;;1.20;;
17854;SDS011;9053;53.358;6.382;2023-08-21T14:34:46;1.67;;;1.17;;
17854;SDS011;9053;53.358;6.382;2023-08-21T14:37:16;4.65;;;1.42;;
17854;SDS011;9053;53.358;6.382;2023-08-21T14:39:46;4.97;;;1.40;;
17854;SDS011;9053;53.358;6.382;2023-08-21T14:42:18;3.88;;;1.40;;
17854;SDS011;9053;53.358;6.382;2023-08-21T14:44:48;4.13;;;1.58;;
17854;SDS011;9053;53.358;6.382;2023-08-21T14:47:20;2.63;;;1.48;;
17854;SDS011;9053;53.358;6.382;2023-08-21T14:49:50;5.00;;;1.60;;
17854;SDS011;9053;53.358;6.382;2023-08-21T14:52:21;4.53;;;1.48;;
17854;SDS011;9053;53.358;6.382;2023-08-21T14:54:52;1.83;;;1.40;;
17854;SDS011;9053;53.358;6.382;2023-08-21T14:57:24;3.33;;;1.30;;
17854;SDS011;9053;53.358;6.382;2023-08-21T14:59:54;2.13;;;1.20;;
17854;SDS011;9053;53.358;6.382;2023-08-21T15:02:27;2.00;;;0.90;;
17854;SDS011;9053;53.358;6.382;2023-08-21T15:04:57;2.80;;;1.10;;
17854;SDS011;9053;53.358;6.382;2023-08-21T15:07:27;1.40;;;1.00;;
17854;SDS011;9053;53.358;6.382;2023-08-21T15:09:57;4.38;;;1.60;;
17854;SDS011;9053;53.358;6.382;2023-08-21T15:12:27;2.33;;;1.50;;
17854;SDS011;9053;53.358;6.382;2023-08-21T15:14:57;2.83;;;1.20;;
17854;SDS011;9053;53.358;6.382;2023-08-21T15:17:29;2.35;;;1.17;;
17854;SDS011;9053;53.358;6.382;2023-08-21T15:19:59;2.20;;;1.20;;
17854;SDS011;9053;53.358;6.382;2023-08-21T15:22:31;3.25;;;1.33;;
17854;SDS011;9053;53.358;6.382;2023-08-21T15:25:01;2.75;;;0.88;;
17854;SDS011;9053;53.358;6.382;2023-08-21T15:27:31;1.65;;;1.33;;